Hartland, VT

5:50 PM EDT on September 25, 2016 (GMT -0400)
Hartland Four Corners | | Change Station
Active Advisory: Frost Advisory

Elev 655 ft 43.55 °N, 72.42 °W | Updated 20 seconds ago

Clear
Clear
55.8 °F
Feels Like 55.8 °F
N
0.0
Wind Variable Wind from SSE
Gusts 0.0 mph

Today
High -- | Low -- °F
--% Chance of Precip.
Yesterday
High -- | Low -- °F
Precip. -- in
Pressure 30.12 in
Visibility 10.0 miles
Clouds Clear
Dew Point 39 °F
Humidity 53%
Rainfall 0.00 in
Snow Depth Not available.
6:40 AM 6:40 PM
Waning Crescent, 24% visible
METAR KLEB 252053Z 35009G18KT 10SM CLR 17/M04 A3012 RMK AO2 SLP200 T01671039 53001
Pressure 30.12 in
Visibility 10.0 miles
Clouds Clear
Dew Point 39 °F
Humidity 53%
Rainfall 0.00 in
Snow Depth Not available.
6:40 AM 6:40 PM
Waning Crescent, 24% visible
METAR KLEB 252053Z 35009G18KT 10SM CLR 17/M04 A3012 RMK AO2 SLP200 T01671039 53001

10-Day Weather Forecast

Almanac

Astronomy

Sep. 25, 2016 Rise Set
Actual Time
Civil Twilight
Nautical Twilight
Astronomical Twilight
Moon
Length of Visible Light
Length of Day
Tomorrow will be .
, % of the Moon is Illuminated

Today's Extremes

State Highs State Lows

Community

WunderPhotos

Upload Photos

1,941,752 photos uploaded!

WunderBlog® & News

Nearby

Air Quality

  Air Quality AQ Index Pollutant
Not available.

Snow Depth

Station Depth Elevation

Earthquake Activity

City Distance Mag. Time & Date
Minimum magnitude displayed is 2.5.

Coastal Water Temperatures

Place Temperature

Stations

Nearby Weather Stations

Station Location Temp. Windchill Dew Point Humidity Wind Precip. Elev Updated Type
                   

Watches & Warnings

Frost Advisory
Issued: 1:34 PM EDT Sep. 25, 2016 – National Weather Service

... Frost advisory in effect from 1 am to 8 am EDT Monday...

The National Weather Service in Burlington has issued a frost
advisory... which is in effect from 1 am to 8 am EDT Monday.

* Locations... southwestern Saint Lawrence County... southern
Vermont... and the Champlain Valley excluding Grand Isle County.

* Hazards... areas of frost.

* Temperatures... lows in the mid 30s.

* Timing... areas frost will begin to develop after midnight
tonight... and be most widespread around sunrise Monday morning.

* Impacts... sensitive outdoor
plants may be killed if left uncovered.

Precautionary/preparedness actions...

Please stay tuned to NOAA Weather Radio... your local media... or
go to www.Weather.Gov/Burlington for further updates on this
weather situation.



Lahiff